Time;durP1;ratioP1;P1;durP2;ratioP2;P2;SDS_P1;SDS_P2;PMS_P1;PMS_P2;Temp;Humidity;BMP_temperature;BMP_pressure;BME280_temperature;BME280_humidity;BME280_pressure;Samples;Min_cycle;Max_cycle;Signal;HPM_P1;HPM_P2
2023/05/04 00:00:39;;;;;;;1999.90;999.90;;;7.60;99.90;;;;;;5115906;28;20129;-79
2023/05/04 00:03:05;;;;;;;1999.90;999.90;;;7.60;99.90;;;;;;5097157;28;20038;-78
2023/05/04 00:05:31;;;;;;;1999.90;999.90;;;7.70;99.90;;;;;;5115654;28;20036;-78
2023/05/04 00:07:57;;;;;;;1999.90;999.90;;;7.70;99.90;;;;;;5097496;28;20893;-78
2023/05/04 00:10:22;;;;;;;1999.90;999.90;;;7.70;99.90;;;;;;5115642;28;20047;-78
2023/05/04 00:12:48;;;;;;;1999.90;999.90;;;7.70;99.90;;;;;;5097322;28;20035;-78
2023/05/04 00:15:13;;;;;;;1999.90;999.90;;;7.60;99.90;;;;;;5096720;28;20036;-78
2023/05/04 00:17:39;;;;;;;1999.90;999.90;;;7.60;99.90;;;;;;5115757;28;20028;-78
2023/05/04 00:20:05;;;;;;;1999.90;999.90;;;7.50;99.90;;;;;;5115721;28;20043;-78
2023/05/04 00:22:31;;;;;;;1999.90;999.90;;;7.50;99.90;;;;;;5115441;28;20090;-78
2023/05/04 00:24:57;;;;;;;1999.90;999.90;;;7.40;99.90;;;;;;5114868;28;20032;-79
2023/05/04 00:27:22;;;;;;;1999.90;999.90;;;7.50;99.90;;;;;;5096904;28;20032;-78
2023/05/04 00:29:48;;;;;;;1999.90;999.90;;;7.40;99.90;;;;;;5096905;28;20131;-78
2023/05/04 00:32:13;;;;;;;1999.90;999.90;;;7.40;99.90;;;;;;5115416;28;20034;-78
2023/05/04 00:34:39;;;;;;;1999.90;999.90;;;7.40;99.90;;;;;;5096078;28;20079;-78
2023/05/04 00:37:05;;;;;;;1999.90;999.90;;;7.40;99.90;;;;;;5097046;28;20076;-78
2023/05/04 00:39:33;;;;;;;1999.90;999.90;;;7.40;99.90;;;;;;5096977;28;20043;-78
2023/05/04 00:41:59;;;;;;;1999.90;999.90;;;7.30;99.90;;;;;;5095194;28;20028;-78
2023/05/04 00:44:26;;;;;;;1999.90;999.90;;;7.20;99.90;;;;;;5076180;28;20474;-78
2023/05/04 00:46:52;;;;;;;1999.90;999.90;;;7.20;99.90;;;;;;5078328;28;20037;-78
2023/05/04 00:49:18;;;;;;;1999.90;999.90;;;7.10;99.90;;;;;;5080062;28;20089;-78
2023/05/04 00:51:44;;;;;;;1999.90;999.90;;;7.20;99.90;;;;;;5098463;28;20448;-78
2023/05/04 00:54:10;;;;;;;1999.90;999.90;;;7.20;99.90;;;;;;5099027;28;20028;-78
2023/05/04 00:56:41;;;;;;;1999.90;999.90;;;7.20;99.90;;;;;;5118793;28;20066;-78
2023/05/04 00:59:06;;;;;;;1999.90;999.90;;;7.30;99.90;;;;;;5100017;28;20039;-78
2023/05/04 01:01:32;;;;;;;1999.90;999.90;;;7.20;99.90;;;;;;5118487;28;20032;-78
2023/05/04 01:03:58;;;;;;;1999.90;999.90;;;7.30;99.90;;;;;;5118146;28;20040;-79
2023/05/04 01:06:39;;;;;;;1999.90;999.90;;;7.20;99.90;;;;;;5100191;28;20036;-78
2023/05/04 01:09:20;;;;;;;1999.90;999.90;;;7.20;99.90;;;;;;5100291;28;20036;-78
2023/05/04 01:12:12;;;;;;;1999.90;999.90;;;7.20;99.90;;;;;;5100186;28;20040;-77
2023/05/04 01:14:38;;;;;;;1999.90;999.90;;;7.30;99.90;;;;;;5074339;28;20418;-78
2023/05/04 01:17:06;;;;;;;1999.90;999.90;;;7.30;99.90;;;;;;5079733;28;20039;-77
2023/05/04 01:19:33;;;;;;;1999.90;999.90;;;7.30;99.90;;;;;;5098021;28;20067;-78
2023/05/04 01:21:58;;;;;;;1999.90;999.90;;;7.30;99.90;;;;;;5097799;28;20094;-78
2023/05/04 01:24:25;;;;;;;1999.90;999.90;;;7.30;99.90;;;;;;5079161;28;20032;-78
2023/05/04 01:27:01;;;;;;;1999.90;999.90;;;7.30;99.90;;;;;;5079577;28;20040;-78
2023/05/04 01:29:59;;;;;;;1999.90;999.90;;;7.20;99.90;;;;;;5097939;28;20508;-78
2023/05/04 01:32:28;;;;;;;1999.90;999.90;;;7.10;99.90;;;;;;5098494;28;20480;-78
2023/05/04 01:34:54;;;;;;;1999.90;999.90;;;7.10;99.90;;;;;;5097032;28;20037;-78
2023/05/04 01:37:20;;;;;;;1999.90;999.90;;;7.10;99.90;;;;;;5079487;28;20521;-78
2023/05/04 01:39:45;;;;;;;1999.90;999.90;;;7.10;99.90;;;;;;5097933;28;20166;-78
2023/05/04 01:42:11;;;;;;;1999.90;999.90;;;7.00;99.90;;;;;;5078781;28;20032;-78
2023/05/04 01:44:37;;;;;;;1999.90;999.90;;;6.90;99.90;;;;;;5097123;28;20071;-78
2023/05/04 01:47:02;;;;;;;1999.90;999.90;;;6.90;99.90;;;;;;5079358;28;20060;-78
2023/05/04 01:49:28;;;;;;;1999.90;999.90;;;6.80;99.90;;;;;;5079045;28;20043;-78
2023/05/04 01:51:54;;;;;;;1999.90;999.90;;;6.80;99.90;;;;;;5097324;28;20112;-78
2023/05/04 01:54:19;;;;;;;1999.90;999.90;;;6.80;99.90;;;;;;5078704;28;20059;-79
2023/05/04 01:56:45;;;;;;;1999.90;999.90;;;6.70;99.90;;;;;;5097459;28;20052;-78
2023/05/04 01:59:10;;;;;;;1999.90;999.90;;;6.60;99.90;;;;;;5096374;28;20036;-78
2023/05/04 02:01:36;;;;;;;1999.90;999.90;;;6.70;99.90;;;;;;5078888;28;20074;-78
2023/05/04 02:04:02;;;;;;;1999.90;999.90;;;6.60;99.90;;;;;;5096690;28;20032;-78
2023/05/04 02:06:27;;;;;;;1999.90;999.90;;;6.60;99.90;;;;;;5078877;28;20036;-78
2023/05/04 02:08:53;;;;;;;1999.90;999.90;;;6.60;99.90;;;;;;5097288;28;20032;-78
2023/05/04 02:11:18;;;;;;;1999.90;999.90;;;6.60;99.90;;;;;;5078733;28;20037;-78
2023/05/04 02:13:44;;;;;;;1999.90;999.90;;;6.60;99.90;;;;;;5078571;28;20036;-78
2023/05/04 02:16:10;;;;;;;1999.90;999.90;;;6.60;99.90;;;;;;5097085;28;20039;-78
2023/05/04 02:18:36;;;;;;;1999.90;999.90;;;6.50;99.90;;;;;;5096992;28;20417;-78
2023/05/04 02:21:01;;;;;;;1999.90;999.90;;;6.50;99.90;;;;;;5078380;28;20037;-79
2023/05/04 02:23:27;;;;;;;1999.90;999.90;;;6.50;99.90;;;;;;5078518;28;20036;-78
2023/05/04 02:25:53;;;;;;;1999.90;999.90;;;6.50;99.90;;;;;;5096628;28;20458;-78
2023/05/04 02:28:19;;;;;;;1999.90;999.90;;;6.50;99.90;;;;;;5096753;28;20036;-78
2023/05/04 02:30:44;;;;;;;1999.90;999.90;;;6.50;99.90;;;;;;5114252;28;20048;-78
2023/05/04 02:33:10;;;;;;;1999.90;999.90;;;6.50;99.90;;;;;;5096779;28;20071;-78
2023/05/04 02:35:35;;;;;;;1999.90;999.90;;;6.50;99.90;;;;;;5078136;28;20496;-78
2023/05/04 02:38:01;;;;;;;1999.90;999.90;;;6.50;99.90;;;;;;5096892;28;20107;-78
2023/05/04 02:40:26;;;;;;;1999.90;999.90;;;6.50;99.90;;;;;;5109319;28;20442;-78
2023/05/04 02:42:52;;;;;;;1999.90;999.90;;;6.50;99.90;;;;;;5099837;28;20123;-78
2023/05/04 02:45:18;;;;;;;1999.90;999.90;;;6.50;99.90;;;;;;5077941;28;20509;-78
2023/05/04 02:47:44;;;;;;;1999.90;999.90;;;6.40;99.90;;;;;;5079078;28;20024;-78
2023/05/04 02:50:09;;;;;;;1999.90;999.90;;;6.40;99.90;;;;;;5096917;28;20432;-78
2023/05/04 02:52:35;;;;;;;1999.90;999.90;;;6.40;99.90;;;;;;5078413;28;20560;-78
2023/05/04 02:55:02;;;;;;;1999.90;999.90;;;6.40;99.90;;;;;;5096324;28;20032;-78
2023/05/04 02:57:27;;;;;;;1999.90;999.90;;;6.40;99.90;;;;;;5096808;28;20025;-78
2023/05/04 02:59:53;;;;;;;1999.90;999.90;;;6.40;99.90;;;;;;5078341;28;20467;-78
2023/05/04 03:02:18;;;;;;;1999.90;999.90;;;6.30;99.90;;;;;;5078294;28;20375;-78
2023/05/04 03:04:44;;;;;;;1999.90;999.90;;;6.30;99.90;;;;;;5095961;28;20119;-78
2023/05/04 03:07:10;;;;;;;1999.90;999.90;;;6.30;99.90;;;;;;5085258;28;20505;-78
2023/05/04 03:09:36;;;;;;;1999.90;999.90;;;6.30;99.90;;;;;;5097983;28;20036;-78
2023/05/04 03:12:02;;;;;;;1999.90;999.90;;;6.30;99.90;;;;;;5107606;28;20037;-79
2023/05/04 03:14:28;;;;;;;1999.90;999.90;;;6.30;99.90;;;;;;5077926;28;20051;-78
2023/05/04 03:16:53;;;;;;;1999.90;999.90;;;6.30;99.90;;;;;;5096000;28;20032;-78
2023/05/04 03:19:20;;;;;;;1999.90;999.90;;;6.30;99.90;;;;;;5096399;28;20037;-78
2023/05/04 03:21:46;;;;;;;1999.90;999.90;;;6.30;99.90;;;;;;5096190;28;20433;-78
2023/05/04 03:24:12;;;;;;;1999.90;999.90;;;6.30;99.90;;;;;;5095461;28;20028;-78
2023/05/04 03:26:38;;;;;;;1999.90;999.90;;;6.40;99.90;;;;;;5077797;28;20477;-78
2023/05/04 03:29:03;;;;;;;1999.90;999.90;;;6.30;99.90;;;;;;5078049;28;20029;-78
2023/05/04 03:31:29;;;;;;;1999.90;999.90;;;6.30;99.90;;;;;;5096172;28;20135;-78
2023/05/04 03:33:54;;;;;;;1999.90;999.90;;;6.20;99.90;;;;;;5076990;28;20036;-78
2023/05/04 03:36:20;;;;;;;1999.90;999.90;;;6.30;99.90;;;;;;5096331;28;20101;-78
2023/05/04 03:38:46;;;;;;;1999.90;999.90;;;6.30;99.90;;;;;;5078032;28;20132;-78
2023/05/04 03:41:12;;;;;;;1999.90;999.90;;;6.30;99.90;;;;;;5095830;28;20402;-78
2023/05/04 03:43:38;;;;;;;1999.90;999.90;;;6.20;99.90;;;;;;5077555;28;20506;-78
2023/05/04 03:46:04;;;;;;;1999.90;999.90;;;6.30;99.90;;;;;;5095567;28;20075;-78
2023/05/04 03:48:30;;;;;;;1999.90;999.90;;;6.30;99.90;;;;;;5095854;28;20434;-78
2023/05/04 03:50:56;;;;;;;1999.90;999.90;;;6.30;99.90;;;;;;5078002;28;20082;-80
2023/05/04 03:53:21;;;;;;;1999.90;999.90;;;6.20;99.90;;;;;;5096546;28;20052;-80
2023/05/04 03:55:47;;;;;;;1999.90;999.90;;;6.20;99.90;;;;;;5077815;28;20115;-80
2023/05/04 03:58:13;;;;;;;1999.90;999.90;;;6.20;99.90;;;;;;5095834;28;20031;-78
2023/05/04 04:00:39;;;;;;;1999.90;999.90;;;6.30;99.90;;;;;;5077450;28;20060;-78
2023/05/04 04:03:04;;;;;;;1999.90;999.90;;;6.20;99.90;;;;;;5077142;28;20060;-78
2023/05/04 04:05:30;;;;;;;1999.90;999.90;;;6.20;99.90;;;;;;5095486;28;20071;-78
2023/05/04 04:07:55;;;;;;;1999.90;999.90;;;6.20;99.90;;;;;;5077381;28;20074;-78
2023/05/04 04:10:21;;;;;;;1999.90;999.90;;;6.20;99.90;;;;;;5095250;28;20409;-78
2023/05/04 04:12:46;;;;;;;1999.90;999.90;;;6.20;99.90;;;;;;5095605;28;20040;-78
2023/05/04 04:15:12;;;;;;;1999.90;999.90;;;6.20;99.90;;;;;;5076558;28;20032;-78
2023/05/04 04:17:37;;;;;;;1999.90;999.90;;;6.20;99.90;;;;;;5095676;28;20068;-78
2023/05/04 04:20:03;;;;;;;1999.90;999.90;;;6.30;99.90;;;;;;5095675;28;20041;-78
2023/05/04 04:22:29;;;;;;;1999.90;999.90;;;6.30;99.90;;;;;;5095210;28;20036;-78
2023/05/04 04:24:55;;;;;;;1999.90;999.90;;;6.30;99.90;;;;;;5076469;28;20044;-79
2023/05/04 04:27:20;;;;;;;1999.90;999.90;;;6.30;99.90;;;;;;5077001;28;20083;-79
2023/05/04 04:29:46;;;;;;;1999.90;999.90;;;6.30;99.90;;;;;;5095273;28;20040;-78
2023/05/04 04:32:12;;;;;;;1999.90;999.90;;;6.30;99.90;;;;;;5076789;28;20036;-78
2023/05/04 04:34:37;;;;;;;1999.90;999.90;;;6.30;99.90;;;;;;5076465;28;20033;-81
2023/05/04 04:37:03;;;;;;;1999.90;999.90;;;6.30;99.90;;;;;;5095636;28;20037;-81
2023/05/04 04:39:28;;;;;;;1999.90;999.90;;;6.40;99.90;;;;;;5078317;28;20035;-81
2023/05/04 04:41:54;;;;;;;1999.90;999.90;;;6.40;99.90;;;;;;5116019;28;20054;-81
2023/05/04 04:44:20;;;;;;;1999.90;999.90;;;6.50;99.90;;;;;;5096771;28;20024;-80
2023/05/04 04:46:46;;;;;;;1999.90;999.90;;;6.50;99.90;;;;;;5097564;28;20040;-80
2023/05/04 04:49:11;;;;;;;1999.90;999.90;;;6.60;99.90;;;;;;5096891;28;20032;-81
2023/05/04 04:51:37;;;;;;;1999.90;999.90;;;6.70;99.90;;;;;;5096911;28;20036;-81
2023/05/04 04:54:03;;;;;;;1999.90;999.90;;;6.80;99.90;;;;;;5097405;28;20055;-82
2023/05/04 04:56:28;;;;;;;1999.90;999.90;;;6.80;99.90;;;;;;5115649;28;20036;-80
2023/05/04 04:58:54;;;;;;;1999.90;999.90;;;6.90;99.90;;;;;;5115808;28;20474;-81
2023/05/04 05:01:19;;;;;;;1999.90;999.90;;;7.00;99.90;;;;;;5115636;28;20482;-81
2023/05/04 05:03:45;;;;;;;1999.90;999.90;;;7.10;99.90;;;;;;5096746;28;20054;-80
2023/05/04 05:06:12;;;;;;;1999.90;999.90;;;7.20;99.90;;;;;;5115284;28;20035;-82
2023/05/04 05:08:38;;;;;;;1999.90;999.90;;;7.30;99.90;;;;;;5115088;28;20040;-81
2023/05/04 05:11:04;;;;;;;1999.90;999.90;;;7.40;99.90;;;;;;5097064;28;20071;-84
2023/05/04 05:13:30;;;;;;;1999.90;999.90;;;7.50;99.90;;;;;;5115137;28;20099;-80
2023/05/04 05:15:56;;;;;;;1999.90;999.90;;;7.60;99.90;;;;;;5096214;28;20393;-80
2023/05/04 05:18:21;;;;;;;1999.90;999.90;;;7.80;99.90;;;;;;5112093;27;20039;-79
2023/05/04 05:20:47;;;;;;;1999.90;999.90;;;7.90;99.90;;;;;;5096423;28;20035;-79
2023/05/04 05:23:13;;;;;;;1999.90;999.90;;;8.00;99.90;;;;;;5096063;28;20473;-79
2023/05/04 05:25:38;;;;;;;1999.90;999.90;;;8.10;99.90;;;;;;5114674;28;20107;-80
2023/05/04 05:28:04;;;;;;;1999.90;999.90;;;8.20;99.90;;;;;;5096265;28;20108;-77
2023/05/04 05:30:30;;;;;;;1999.90;999.90;;;8.30;99.90;;;;;;5114739;28;20079;-77
2023/05/04 05:32:55;;;;;;;1999.90;999.90;;;8.40;99.90;;;;;;5097777;28;20529;-77
2023/05/04 05:35:21;;;;;;;1999.90;999.90;;;8.50;99.90;;;;;;5100139;22;20056;-73
2023/05/04 05:37:47;;;;;;;1999.90;999.90;;;8.60;99.90;;;;;;5077299;28;20141;-73
2023/05/04 05:40:14;;;;;;;1999.90;999.90;;;8.70;99.90;;;;;;5059067;28;20033;-73
2023/05/04 05:42:41;;;;;;;1999.90;999.90;;;8.70;99.90;;;;;;5076931;28;20033;-73
2023/05/04 05:45:09;;;;;;;1999.90;999.90;;;8.80;99.90;;;;;;5079104;28;20064;-73
2023/05/04 05:47:37;;;;;;;1999.90;999.90;;;8.90;99.90;;;;;;5061456;28;20036;-74
2023/05/04 05:50:03;;;;;;;1999.90;999.90;;;9.00;99.90;;;;;;5076975;28;20890;-74
2023/05/04 05:52:28;;;;;;;1999.90;999.90;;;9.10;99.90;;;;;;5076704;28;20033;-74
2023/05/04 05:54:54;;;;;;;1999.90;999.90;;;9.20;99.90;;;;;;5076831;28;20037;-74
2023/05/04 05:57:20;;;;;;;1999.90;999.90;;;9.20;99.90;;;;;;5076908;28;20037;-74
2023/05/04 05:59:46;;;;;;;1999.90;999.90;;;9.30;99.90;;;;;;5076677;28;20389;-75
2023/05/04 06:02:13;;;;;;;1999.90;999.90;;;9.40;99.90;;;;;;5076468;28;20052;-73
2023/05/04 06:04:40;;;;;;;1999.90;999.90;;;9.50;99.90;;;;;;5075971;28;20356;-74
2023/05/04 06:07:05;;;;;;;1999.90;999.90;;;9.60;99.90;;;;;;5076452;28;20116;-73
2023/05/04 06:09:31;;;;;;;1999.90;999.90;;;9.80;99.90;;;;;;5076405;28;20512;-73
2023/05/04 06:11:57;;;;;;;1999.90;999.90;;;9.80;99.90;;;;;;5058099;28;20445;-73
2023/05/04 06:14:23;;;;;;;1999.90;999.90;;;9.90;99.90;;;;;;5075703;28;20486;-73
2023/05/04 06:16:48;;;;;;;1999.90;999.90;;;10.00;99.90;;;;;;5076130;28;20037;-73
2023/05/04 06:19:14;;;;;;;1999.90;999.90;;;10.10;99.90;;;;;;5076613;28;20211;-74
2023/05/04 06:21:39;;;;;;;1999.90;999.90;;;10.20;99.90;;;;;;5076079;28;20084;-74
2023/05/04 06:24:05;;;;;;;1999.90;999.90;;;10.30;99.90;;;;;;5075066;28;20033;-73
2023/05/04 06:26:31;;;;;;;1999.90;999.90;;;10.40;99.90;;;;;;5072101;28;20450;-74
2023/05/04 06:28:57;;;;;;;1999.90;999.90;;;10.50;99.90;;;;;;5075981;28;20501;-73
2023/05/04 06:31:23;;;;;;;1999.90;999.90;;;10.60;99.90;;;;;;5075672;28;20548;-73
2023/05/04 06:33:49;;;;;;;1999.90;999.90;;;10.70;99.90;;;;;;5075143;28;20035;-73
2023/05/04 06:36:15;;;;;;;1999.90;999.90;;;10.70;99.90;;;;;;5057674;28;20037;-73
2023/05/04 06:38:40;;;;;;;1999.90;999.90;;;10.90;99.90;;;;;;5057613;28;20029;-73
2023/05/04 06:41:06;;;;;;;1999.90;999.90;;;11.00;99.90;;;;;;5057510;28;20069;-73
2023/05/04 06:43:31;;;;;;;1999.90;999.90;;;11.20;99.90;;;;;;5075570;28;20486;-73
2023/05/04 06:46:03;;;;;;;1999.90;999.90;;;11.30;99.90;;;;;;5074941;28;20079;-74
2023/05/04 06:48:30;;;;;;;1999.90;999.90;;;11.50;99.90;;;;;;5075870;28;20863;-74
2023/05/04 06:50:56;;;;;;;1999.90;999.90;;;11.60;99.90;;;;;;5075570;28;20071;-73
2023/05/04 06:53:22;;;;;;;1999.90;999.90;;;11.70;99.90;;;;;;5075364;28;20072;-73
2023/05/04 06:55:47;;;;;;;1999.90;999.90;;;11.90;99.90;;;;;;5057319;28;20779;-74
2023/05/04 06:58:17;;;;;;;1999.90;999.90;;;12.10;99.90;;;;;;5075941;28;20029;-74
2023/05/04 07:00:43;;;;;;;1999.90;999.90;;;12.30;99.90;;;;;;5057032;28;20040;-74
2023/05/04 07:03:08;;;;;;;1999.90;999.90;;;12.50;99.90;;;;;;5075370;28;20037;-74
2023/05/04 07:05:35;;;;;;;1999.90;999.90;;;12.70;99.90;;;;;;5056815;28;20037;-74
2023/05/04 07:08:02;;;;;;;1999.90;999.90;;;12.90;99.90;;;;;;5075688;28;20061;-74
2023/05/04 07:10:27;;;;;;;1999.90;999.90;;;13.10;99.90;;;;;;5075219;28;20044;-74
2023/05/04 07:12:53;;;;;;;1999.90;999.90;;;13.20;99.90;;;;;;5056912;28;20426;-74
2023/05/04 07:15:19;;;;;;;1999.90;999.90;;;13.30;99.90;;;;;;5074843;28;20037;-73
2023/05/04 07:17:46;;;;;;;1999.90;999.90;;;13.40;99.90;;;;;;5057010;28;20033;-73
2023/05/04 07:20:12;;;;;;;1999.90;999.90;;;13.50;99.90;;;;;;5075456;28;20036;-73
2023/05/04 07:22:38;;;;;;;1999.90;999.90;;;13.60;99.90;;;;;;5075021;28;20029;-76
2023/05/04 07:25:04;;;;;;;1999.90;999.90;;;13.80;99.90;;;;;;5056162;28;20494;-73
2023/05/04 07:27:30;;;;;;;1999.90;999.90;;;14.00;99.90;;;;;;5074934;28;20513;-74
2023/05/04 07:29:56;;;;;;;1999.90;999.90;;;14.30;99.90;;;;;;5075080;28;20032;-74
2023/05/04 07:32:21;;;;;;;1999.90;999.90;;;14.50;99.90;;;;;;5074808;28;20397;-76
2023/05/04 07:34:47;;;;;;;1999.90;999.90;;;14.70;99.90;;;;;;5074033;28;20041;-75
2023/05/04 07:37:14;;;;;;;1999.90;999.90;;;15.00;99.90;;;;;;5074492;28;20379;-73
2023/05/04 07:39:40;;;;;;;1999.90;999.90;;;15.00;99.90;;;;;;5074975;28;20021;-72
2023/05/04 07:42:06;;;;;;;1999.90;999.90;;;15.10;99.90;;;;;;5074472;28;20044;-72
2023/05/04 07:44:32;;;;;;;1999.90;999.90;;;15.20;99.90;;;;;;5074385;28;20064;-72
2023/05/04 07:46:58;;;;;;;1999.90;999.90;;;15.30;99.90;;;;;;5068753;28;20041;-74
2023/05/04 07:49:24;;;;;;;1999.90;999.90;;;15.40;99.90;;;;;;5054968;28;20035;-74
2023/05/04 07:51:55;;;;;;;1999.90;999.90;;;15.40;99.90;;;;;;5059799;28;20041;-74
2023/05/04 07:54:21;;;;;;;1999.90;999.90;;;15.60;99.90;;;;;;5056300;28;20494;-72
2023/05/04 07:56:47;;;;;;;1999.90;999.90;;;15.80;99.90;;;;;;5054147;28;20041;-72
2023/05/04 07:59:16;;;;;;;1999.90;999.90;;;16.10;99.90;;;;;;5074244;28;20530;-72
2023/05/04 08:01:41;;;;;;;1999.90;999.90;;;16.20;99.90;;;;;;5068405;28;20028;-71
2023/05/04 08:04:07;;;;;;;1999.90;999.90;;;16.50;99.90;;;;;;5053489;28;20040;-72
2023/05/04 08:06:38;;;;;;;1999.90;999.90;;;16.50;98.40;;;;;;5073608;28;20102;-72
2023/05/04 08:09:05;;;;;;;1999.90;999.90;;;16.60;99.00;;;;;;5073209;28;20029;-73
2023/05/04 08:11:33;;;;;;;1999.90;999.90;;;16.60;98.20;;;;;;5054466;28;20132;-72
2023/05/04 08:13:59;;;;;;;1999.90;999.90;;;16.70;99.40;;;;;;5037780;28;20032;-70
2023/05/04 08:16:25;;;;;;;1999.90;999.90;;;17.10;98.90;;;;;;5066827;28;20033;-72
2023/05/04 08:18:50;;;;;;;1999.90;999.90;;;17.10;97.10;;;;;;5071853;28;20398;-73
2023/05/04 08:21:16;;;;;;;1999.90;999.90;;;17.20;97.50;;;;;;5055570;28;20044;-73
2023/05/04 08:23:41;;;;;;;1999.90;999.90;;;17.40;96.80;;;;;;5054683;28;20555;-73
2023/05/04 08:26:07;;;;;;;1999.90;999.90;;;17.60;96.50;;;;;;5054603;28;20044;-72
2023/05/04 08:28:36;;;;;;;1999.90;999.90;;;17.90;96.10;;;;;;5073488;28;20140;-73
2023/05/04 08:31:02;;;;;;;1999.90;999.90;;;18.10;95.60;;;;;;5072873;28;20036;-73
2023/05/04 08:33:29;;;;;;;1999.90;999.90;;;18.20;94.60;;;;;;5069378;28;20040;-72
2023/05/04 08:35:54;;;;;;;1999.90;999.90;;;18.30;94.50;;;;;;5072969;28;20036;-73
2023/05/04 08:38:20;;;;;;;1999.90;999.90;;;18.30;94.50;;;;;;5073559;28;20037;-73
2023/05/04 08:40:46;;;;;;;1999.90;999.90;;;18.40;93.60;;;;;;5054950;28;20040;-73
2023/05/04 08:43:11;;;;;;;1999.90;999.90;;;18.60;93.80;;;;;;5053811;28;20039;-73
2023/05/04 08:45:41;;;;;;;1999.90;999.90;;;18.70;93.30;;;;;;5071002;28;20040;-73
2023/05/04 08:48:08;;;;;;;1999.90;999.90;;;18.90;92.80;;;;;;5067509;28;20220;-73
2023/05/04 08:50:34;;;;;;;1999.90;999.90;;;18.80;92.10;;;;;;5070607;28;20494;-73
2023/05/04 08:53:04;;;;;;;1999.90;999.90;;;18.90;92.30;;;;;;5073621;28;20033;-73
2023/05/04 08:55:32;;;;;;;1999.90;999.90;;;19.20;91.20;;;;;;5072790;28;20544;-73
2023/05/04 08:58:00;;;;;;;1999.90;999.90;;;19.20;90.70;;;;;;5070919;28;20029;-74
2023/05/04 09:00:27;;;;;;;1999.90;999.90;;;19.20;90.30;;;;;;5073038;28;20032;-74
2023/05/04 09:02:53;;;;;;;1999.90;999.90;;;19.40;90.00;;;;;;5073310;28;20032;-72
2023/05/04 09:05:19;;;;;;;1999.90;999.90;;;19.50;87.70;;;;;;5072584;28;20043;-74
2023/05/04 09:07:46;;;;;;;1999.90;999.90;;;19.50;86.70;;;;;;5074526;28;20040;-74
2023/05/04 09:10:11;;;;;;;1999.90;999.90;;;19.60;83.40;;;;;;5077008;28;20094;-73
2023/05/04 09:12:37;;;;;;;1999.90;999.90;;;19.60;85.20;;;;;;5058966;28;20090;-73
2023/05/04 09:15:16;;;;;;;1999.90;999.90;;;19.70;85.00;;;;;;5076001;28;20037;-74
2023/05/04 09:17:52;;;;;;;1999.90;999.90;;;20.10;83.60;;;;;;5057145;28;20025;-73
2023/05/04 09:20:18;;;;;;;1999.90;999.90;;;20.10;83.80;;;;;;5077081;28;20037;-73
2023/05/04 09:22:44;;;;;;;1999.90;999.90;;;20.20;83.60;;;;;;5076656;28;20064;-73
2023/05/04 09:25:11;;;;;;;1999.90;999.90;;;20.20;83.10;;;;;;5076078;28;20040;-74
2023/05/04 09:27:39;;;;;;;1999.90;999.90;;;20.50;84.00;;;;;;5077008;28;20489;-74
2023/05/04 09:30:05;;;;;;;1999.90;999.90;;;20.40;85.70;;;;;;5076750;28;20041;-73
2023/05/04 09:32:43;;;;;;;1999.90;999.90;;;20.70;84.40;;;;;;5058131;28;20041;-74
2023/05/04 09:35:09;;;;;;;1999.90;999.90;;;21.00;83.50;;;;;;5075486;28;20041;-74
2023/05/04 09:37:44;;;;;;;1999.90;999.90;;;20.90;83.70;;;;;;5075653;28;20033;-74
2023/05/04 09:40:11;;;;;;;1999.90;999.90;;;21.00;84.40;;;;;;5056438;28;20992;-74
2023/05/04 09:42:37;;;;;;;1999.90;999.90;;;21.10;81.00;;;;;;5056616;28;20040;-74
2023/05/04 09:45:07;;;;;;;1999.90;999.90;;;21.30;80.30;;;;;;5056449;28;20046;-74
2023/05/04 09:47:38;;;;;;;1999.90;999.90;;;21.40;79.60;;;;;;5058851;28;20086;-73
2023/05/04 09:50:10;;;;;;;1999.90;999.90;;;21.60;82.20;;;;;;5058468;28;20450;-74
2023/05/04 09:52:36;;;;;;;1999.90;999.90;;;22.00;78.90;;;;;;5076866;28;20041;-78
2023/05/04 09:55:03;;;;;;;1999.90;999.90;;;22.30;77.80;;;;;;5076675;28;20041;-74
2023/05/04 09:57:29;;;;;;;1999.90;999.90;;;22.40;79.40;;;;;;5044226;28;20034;-73
2023/05/04 09:59:55;;;;;;;1999.90;999.90;;;22.60;77.10;;;;;;5077786;28;20055;-73
2023/05/04 10:02:21;;;;;;;1999.90;999.90;;;22.60;75.10;;;;;;5059912;28;20526;-75
2023/05/04 10:04:49;;;;;;;1999.90;999.90;;;22.70;75.30;;;;;;5067889;28;20048;-75
2023/05/04 10:07:15;;;;;;;1999.90;999.90;;;22.60;76.30;;;;;;5043855;28;20065;-75
2023/05/04 10:09:41;;;;;;;1999.90;999.90;;;22.30;74.60;;;;;;5056921;28;20473;-75
2023/05/04 10:12:07;;;;;;;1999.90;999.90;;;21.90;72.90;;;;;;5052507;28;20052;-74
2023/05/04 10:14:34;;;;;;;1999.90;999.90;;;21.70;73.70;;;;;;5066501;28;20057;-75
2023/05/04 10:17:13;;;;;;;1999.90;999.90;;;21.90;71.90;;;;;;5057584;28;20044;-75
2023/05/04 10:19:51;;;;;;;1999.90;999.90;;;22.00;73.00;;;;;;5075592;28;20029;-75
2023/05/04 10:22:37;;;;;;;1999.90;999.90;;;22.60;73.30;;;;;;5076321;28;20033;-72
2023/05/04 10:25:06;;;;;;;1999.90;999.90;;;22.70;72.60;;;;;;5075839;28;20033;-72
2023/05/04 10:27:55;;;;;;;1999.90;999.90;;;22.90;73.00;;;;;;5075860;28;20048;-73
2023/05/04 10:30:22;;;;;;;1999.90;999.90;;;23.00;72.10;;;;;;5055300;28;20538;-75
2023/05/04 10:32:59;;;;;;;1999.90;999.90;;;23.40;71.60;;;;;;5046443;28;20036;-74
2023/05/04 10:35:26;;;;;;;1999.90;999.90;;;23.20;68.50;;;;;;5074833;28;20037;-73
2023/05/04 10:37:56;;;;;;;1999.90;999.90;;;23.10;67.40;;;;;;5070661;28;20029;-74
2023/05/04 10:40:36;;;;;;;1999.90;999.90;;;23.40;66.70;;;;;;5075907;28;20091;-74
2023/05/04 10:43:01;;;;;;;1999.90;999.90;;;23.70;65.10;;;;;;5074842;28;20037;-74
2023/05/04 10:45:38;;;;;;;1999.90;999.90;;;23.70;64.40;;;;;;5070867;28;20033;-74
2023/05/04 10:48:04;;;;;;;1999.90;999.90;;;23.80;63.00;;;;;;5074865;28;20041;-74
2023/05/04 10:50:41;;;;;;;1999.90;999.90;;;23.60;62.20;;;;;;5073910;28;20175;-73
2023/05/04 10:53:07;;;;;;;1999.90;999.90;;;23.50;61.90;;;;;;5076209;28;20040;-74
2023/05/04 10:55:47;;;;;;;1999.90;999.90;;;23.60;62.50;;;;;;5069420;28;20382;-75
2023/05/04 10:58:15;;;;;;;1999.90;999.90;;;23.80;63.50;;;;;;5070371;28;20552;-74
2023/05/04 11:00:44;;;;;;;1999.90;999.90;;;23.60;63.40;;;;;;5070799;28;20596;-74
2023/05/04 11:03:11;;;;;;;1999.90;999.90;;;23.90;68.70;;;;;;5080080;28;20120;-74
2023/05/04 11:05:43;;;;;;;1999.90;999.90;;;23.90;65.30;;;;;;5067455;28;20075;-73
2023/05/04 11:08:25;;;;;;;1999.90;999.90;;;23.80;63.90;;;;;;5079624;28;20028;-73
2023/05/04 11:11:02;;;;;;;1999.90;999.90;;;23.70;64.10;;;;;;5067542;28;20036;-74
2023/05/04 11:13:35;;;;;;;1999.90;999.90;;;23.70;64.10;;;;;;5080348;28;20033;-73
2023/05/04 11:16:01;;;;;;;1999.90;999.90;;;24.00;64.40;;;;;;5081110;28;20464;-74
2023/05/04 11:18:31;;;;;;;1999.90;999.90;;;24.20;61.90;;;;;;5060481;28;20041;-74
2023/05/04 11:20:57;;;;;;;1999.90;999.90;;;24.50;65.50;;;;;;5065989;28;20063;-81
2023/05/04 11:23:23;;;;;;;1999.90;999.90;;;24.50;62.80;;;;;;5075305;28;20029;-73
2023/05/04 11:25:49;;;;;;;1999.90;999.90;;;24.30;64.40;;;;;;5075004;28;20040;-73
2023/05/04 11:28:15;;;;;;;1999.90;999.90;;;24.40;64.40;;;;;;5075391;28;20036;-73
2023/05/04 11:30:43;;;;;;;1999.90;999.90;;;24.50;61.00;;;;;;5066464;28;20052;-72
2023/05/04 11:33:14;;;;;;;1999.90;999.90;;;24.40;62.60;;;;;;5075230;28;20033;-73
2023/05/04 11:35:42;;;;;;;1999.90;999.90;;;24.30;59.40;;;;;;5073475;28;20115;-73
2023/05/04 11:38:08;;;;;;;1999.90;999.90;;;24.70;63.80;;;;;;5064820;28;20029;-74
2023/05/04 11:40:35;;;;;;;1999.90;999.90;;;24.90;60.20;;;;;;5076809;28;20037;-75
2023/05/04 11:43:02;;;;;;;1999.90;999.90;;;24.80;61.30;;;;;;5078842;28;20033;-74
2023/05/04 11:45:31;;;;;;;1999.90;999.90;;;24.80;60.20;;;;;;5071900;28;20032;-74
2023/05/04 11:47:58;;;;;;;1999.90;999.90;;;24.80;62.80;;;;;;5074853;28;20432;-74
2023/05/04 11:50:24;;;;;;;1999.90;999.90;;;24.90;59.40;;;;;;5081480;28;20099;-74
2023/05/04 11:52:50;;;;;;;1999.90;999.90;;;25.30;59.10;;;;;;5072484;28;20486;-74
2023/05/04 11:55:27;;;;;;;1999.90;999.90;;;25.00;57.10;;;;;;5073495;28;20041;-74
2023/05/04 11:58:04;;;;;;;1999.90;999.90;;;25.40;61.80;;;;;;5074217;28;20049;-74
2023/05/04 12:00:40;;;;;;;1999.90;999.90;;;25.30;57.50;;;;;;5063938;28;20029;-74
2023/05/04 12:03:15;;;;;;;1999.90;999.90;;;25.20;63.30;;;;;;5059149;28;20048;-74